Time;durP1;ratioP1;P1;durP2;ratioP2;P2;SDS_P1;SDS_P2;PMS_P1;PMS_P2;Temp;Humidity;BMP_temperature;BMP_pressure;BME280_temperature;BME280_humidity;BME280_pressure;Samples;Min_cycle;Max_cycle;Signal;HPM_P1;HPM_P2
2022/09/24 00:00:44;;;;;;;6.70;4.50;;;14.10;99.80;;;;;;5027163;28;20224;-73
2022/09/24 00:03:12;;;;;;;8.33;4.50;;;14.10;99.90;;;;;;5034675;28;20217;-73
2022/09/24 00:05:39;;;;;;;8.57;3.97;;;14.10;99.80;;;;;;5027598;28;20706;-73
2022/09/24 00:08:06;;;;;;;6.03;4.17;;;14.10;99.80;;;;;;5025160;28;20212;-73
2022/09/24 00:10:38;;;;;;;5.20;3.70;;;14.10;99.80;;;;;;5034706;28;20284;-74
2022/09/24 00:13:08;;;;;;;5.77;3.97;;;14.00;99.80;;;;;;5026838;28;20233;-73
2022/09/24 00:15:37;;;;;;;5.67;3.57;;;14.10;99.80;;;;;;5027106;28;20235;-73
2022/09/24 00:18:04;;;;;;;3.30;2.93;;;14.00;99.70;;;;;;5026321;28;20209;-73
2022/09/24 00:20:32;;;;;;;6.97;3.80;;;14.00;99.70;;;;;;5029169;28;20197;-73
2022/09/24 00:22:59;;;;;;;5.17;3.47;;;14.00;99.70;;;;;;5026654;28;20209;-73
2022/09/24 00:28:13;;;;;;;4.50;3.33;;;13.90;99.80;;;;;;5026915;28;20193;-73
2022/09/24 00:30:41;;;;;;;4.67;3.17;;;13.90;99.80;;;;;;5031953;28;20208;-73
2022/09/24 00:33:09;;;;;;;5.07;3.40;;;13.90;99.80;;;;;;5043006;28;20560;-73
2022/09/24 00:35:40;;;;;;;6.40;3.70;;;13.90;99.80;;;;;;5028068;28;20204;-73
2022/09/24 00:38:13;;;;;;;4.90;3.20;;;13.90;99.80;;;;;;5025851;28;20226;-73
2022/09/24 00:40:40;;;;;;;5.97;3.63;;;13.90;99.70;;;;;;5027491;28;20200;-73
2022/09/24 00:43:27;;;;;;;3.37;3.07;;;14.00;99.70;;;;;;5025791;28;20206;-72
2022/09/24 00:45:57;;;;;;;5.20;3.20;;;13.90;99.70;;;;;;5027219;28;20278;-73
2022/09/24 00:48:24;;;;;;;5.60;3.13;;;13.90;99.60;;;;;;5034998;28;20221;-73
2022/09/24 00:50:52;;;;;;;3.30;2.83;;;13.90;99.70;;;;;;5029343;28;20232;-72
2022/09/24 00:53:22;;;;;;;4.10;3.10;;;13.90;99.70;;;;;;5025127;28;20209;-73
2022/09/24 00:55:53;;;;;;;4.60;3.13;;;13.90;99.70;;;;;;5029159;28;20288;-73
2022/09/24 00:58:22;;;;;;;4.53;2.90;;;13.90;99.80;;;;;;5025916;28;20193;-73
2022/09/24 01:00:54;;;;;;;4.67;3.20;;;13.80;99.70;;;;;;5026950;28;20217;-73
2022/09/24 01:03:25;;;;;;;3.67;2.80;;;13.80;99.90;;;;;;5027668;28;20276;-72
2022/09/24 01:05:52;;;;;;;3.80;2.97;;;13.80;99.80;;;;;;5029818;28;20201;-73
2022/09/24 01:08:20;;;;;;;2.90;2.50;;;13.80;99.80;;;;;;5027223;28;20195;-73
2022/09/24 01:11:02;;;;;;;3.60;3.10;;;13.80;99.80;;;;;;5027819;28;20199;-73
2022/09/24 01:13:39;;;;;;;3.20;2.63;;;13.80;99.90;;;;;;5027509;28;20239;-74
2022/09/24 01:16:15;;;;;;;3.30;2.40;;;13.80;99.90;;;;;;5030307;28;20512;-74
2022/09/24 01:18:51;;;;;;;4.17;2.97;;;13.80;99.90;;;;;;5027641;28;20201;-74
2022/09/24 01:21:34;;;;;;;3.60;2.70;;;13.70;99.90;;;;;;5030842;28;20196;-74
2022/09/24 01:24:17;;;;;;;4.90;2.77;;;13.80;99.90;;;;;;5031661;28;20237;-73
2022/09/24 01:27:05;;;;;;;2.50;2.27;;;13.80;99.90;;;;;;5029994;28;20256;-73
2022/09/24 01:30:01;;;;;;;2.77;2.53;;;13.80;99.90;;;;;;5032964;28;20216;-74
2022/09/24 01:32:34;;;;;;;2.83;2.53;;;13.80;99.90;;;;;;5037292;28;20276;-74
2022/09/24 01:35:06;;;;;;;3.73;2.87;;;13.70;99.90;;;;;;5033675;28;20292;-74
2022/09/24 01:37:37;;;;;;;3.73;2.60;;;13.70;99.90;;;;;;5028318;28;20296;-73
2022/09/24 01:40:07;;;;;;;2.30;2.13;;;13.70;99.90;;;;;;5031034;28;20276;-73
2022/09/24 01:42:35;;;;;;;3.67;2.40;;;13.70;99.90;;;;;;5029881;28;20201;-73
2022/09/24 01:45:06;;;;;;;2.73;2.27;;;13.70;99.90;;;;;;5031136;28;20204;-74
2022/09/24 01:47:38;;;;;;;2.70;2.50;;;13.70;99.90;;;;;;5031698;28;20307;-74
2022/09/24 01:50:07;;;;;;;2.30;2.10;;;13.70;99.90;;;;;;5032015;28;20216;-73
2022/09/24 01:52:42;;;;;;;2.77;2.57;;;13.60;99.90;;;;;;5025865;28;20603;-73
2022/09/24 01:55:13;;;;;;;3.50;2.17;;;13.60;99.90;;;;;;5030333;28;20208;-73
2022/09/24 01:57:45;;;;;;;2.30;2.10;;;13.60;99.90;;;;;;5029576;28;20280;-73
2022/09/24 02:00:16;;;;;;;2.60;2.40;;;13.60;99.90;;;;;;5031968;28;20200;-73
2022/09/24 02:02:47;;;;;;;3.97;2.30;;;13.60;99.90;;;;;;5044400;28;20217;-73
2022/09/24 02:05:22;;;;;;;2.33;2.13;;;13.60;99.90;;;;;;5030351;28;20201;-73
2022/09/24 02:07:57;;;;;;;3.60;2.20;;;13.60;99.90;;;;;;5029720;28;20235;-73
2022/09/24 02:10:24;;;;;;;3.40;2.30;;;13.60;99.90;;;;;;5031336;28;20507;-73
2022/09/24 02:12:56;;;;;;;2.30;2.10;;;13.60;99.90;;;;;;5030652;28;20243;-74
2022/09/24 02:15:28;;;;;;;2.30;2.10;;;13.60;99.90;;;;;;5033808;28;20278;-73
2022/09/24 02:17:58;;;;;;;1.97;1.83;;;13.60;99.90;;;;;;5028670;28;20200;-73
2022/09/24 02:20:27;;;;;;;2.00;1.90;;;13.60;99.90;;;;;;5033823;28;20207;-73
2022/09/24 02:22:56;;;;;;;2.23;2.03;;;13.60;99.90;;;;;;5043627;28;20219;-73
2022/09/24 02:25:28;;;;;;;2.53;2.17;;;13.60;99.90;;;;;;5030939;28;20225;-74
2022/09/24 02:27:56;;;;;;;2.50;2.30;;;13.60;99.80;;;;;;5030736;28;20276;-73
2022/09/24 02:30:23;;;;;;;2.10;1.93;;;13.60;99.80;;;;;;5029284;28;20581;-73
2022/09/24 02:32:53;;;;;;;2.90;2.27;;;13.60;99.90;;;;;;5030547;28;20212;-74
2022/09/24 02:35:20;;;;;;;3.50;2.90;;;13.60;99.90;;;;;;5028941;28;20283;-74
2022/09/24 02:37:47;;;;;;;2.80;2.40;;;13.50;99.80;;;;;;5029100;28;20185;-73
2022/09/24 02:40:15;;;;;;;2.50;2.30;;;13.50;99.80;;;;;;5031048;28;20207;-73
2022/09/24 02:42:43;;;;;;;2.43;2.03;;;13.50;99.80;;;;;;5039521;28;20204;-74
2022/09/24 02:45:11;;;;;;;2.47;1.90;;;13.50;99.80;;;;;;5034943;28;20224;-74
2022/09/24 02:47:38;;;;;;;2.23;1.83;;;13.50;99.80;;;;;;5027139;28;20249;-73
2022/09/24 02:50:07;;;;;;;2.73;2.00;;;13.50;99.80;;;;;;5029763;28;20561;-73
2022/09/24 02:52:34;;;;;;;2.50;2.30;;;13.50;99.70;;;;;;5028074;28;20602;-73
2022/09/24 02:55:01;;;;;;;2.37;2.17;;;13.50;99.70;;;;;;5030584;28;20631;-73
2022/09/24 02:57:28;;;;;;;3.17;2.87;;;13.50;99.70;;;;;;5028092;28;20667;-74
2022/09/24 02:59:56;;;;;;;4.63;3.37;;;13.40;99.60;;;;;;5029171;28;20208;-73
2022/09/24 03:02:23;;;;;;;5.23;3.03;;;13.40;99.60;;;;;;5031521;28;20303;-74
2022/09/24 03:04:50;;;;;;;5.03;3.90;;;13.40;99.70;;;;;;5030348;28;20278;-73
2022/09/24 03:07:20;;;;;;;5.17;4.33;;;13.30;99.60;;;;;;5029325;28;20200;-73
2022/09/24 03:09:47;;;;;;;5.40;3.83;;;13.30;99.70;;;;;;5030581;28;20194;-73
2022/09/24 03:12:14;;;;;;;4.37;3.33;;;13.30;99.80;;;;;;5029175;28;20506;-73
2022/09/24 03:14:41;;;;;;;4.60;3.90;;;13.30;99.80;;;;;;5030722;28;20207;-74
2022/09/24 03:17:08;;;;;;;4.83;3.53;;;13.30;99.80;;;;;;5029493;28;20275;-73
2022/09/24 03:19:35;;;;;;;3.60;3.30;;;13.30;99.70;;;;;;5034160;28;20203;-73
2022/09/24 03:22:02;;;;;;;4.00;3.00;;;13.30;99.80;;;;;;5032333;28;20206;-74
2022/09/24 03:24:30;;;;;;;4.83;3.27;;;13.30;99.80;;;;;;5027845;28;20200;-74
2022/09/24 03:26:57;;;;;;;6.47;3.27;;;13.30;99.80;;;;;;5028982;28;20217;-74
2022/09/24 03:32:05;;;;;;;7.43;4.17;;;13.20;99.70;;;;;;5028033;28;20658;-73
2022/09/24 03:34:32;;;;;;;8.23;4.13;;;13.20;99.70;;;;;;5029515;28;20631;-73
2022/09/24 03:36:59;;;;;;;13.17;4.63;;;13.20;99.90;;;;;;5028160;28;20203;-73
2022/09/24 03:39:26;;;;;;;15.17;5.53;;;13.20;99.80;;;;;;5027088;28;20207;-73
2022/09/24 03:41:54;;;;;;;13.90;4.90;;;13.20;99.70;;;;;;5032117;28;20327;-73
2022/09/24 03:44:21;;;;;;;11.67;5.30;;;13.20;99.70;;;;;;5028409;28;20671;-73
2022/09/24 03:46:48;;;;;;;10.10;4.30;;;13.20;99.70;;;;;;5028828;28;20286;-74
2022/09/24 03:49:16;;;;;;;6.03;3.63;;;13.20;99.60;;;;;;5031305;28;20249;-73
2022/09/24 03:51:43;;;;;;;8.93;3.67;;;13.20;99.60;;;;;;5027477;28;20199;-74
2022/09/24 03:54:11;;;;;;;6.77;3.20;;;13.20;99.60;;;;;;5029567;28;20198;-73
2022/09/24 03:56:38;;;;;;;3.93;2.70;;;13.20;99.60;;;;;;5029691;28;20283;-74
2022/09/24 03:59:06;;;;;;;3.90;2.83;;;13.20;99.60;;;;;;5028923;28;20197;-73
2022/09/24 04:01:36;;;;;;;3.87;2.50;;;13.20;99.70;;;;;;5029516;28;20281;-73
2022/09/24 04:04:03;;;;;;;2.63;2.07;;;13.20;99.70;;;;;;5026795;28;20192;-73
2022/09/24 04:06:30;;;;;;;3.47;2.20;;;13.20;99.70;;;;;;5028406;28;20559;-73
2022/09/24 04:08:59;;;;;;;2.57;2.07;;;13.20;99.70;;;;;;5027448;28;20212;-73
2022/09/24 04:11:26;;;;;;;3.23;2.00;;;13.20;99.70;;;;;;5028148;28;20529;-73
2022/09/24 04:13:53;;;;;;;2.13;1.63;;;13.20;99.70;;;;;;5032442;28;20274;-73
2022/09/24 04:16:22;;;;;;;1.80;1.70;;;13.30;99.70;;;;;;5029370;28;20194;-73
2022/09/24 04:18:49;;;;;;;2.17;1.97;;;13.30;99.70;;;;;;5032096;28;20180;-73
2022/09/24 04:21:17;;;;;;;1.70;1.60;;;13.30;99.70;;;;;;5027959;28;20203;-73
2022/09/24 04:23:44;;;;;;;2.63;2.07;;;13.30;99.70;;;;;;5028290;28;20199;-73
2022/09/24 04:26:11;;;;;;;2.23;2.03;;;13.30;99.70;;;;;;5024645;28;20291;-73
2022/09/24 04:28:38;;;;;;;2.63;1.87;;;13.30;99.70;;;;;;5026358;28;20215;-73
2022/09/24 04:31:05;;;;;;;2.23;2.03;;;13.30;99.70;;;;;;5029207;28;20234;-72
2022/09/24 04:33:33;;;;;;;2.53;2.00;;;13.30;99.70;;;;;;5028741;28;20672;-73
2022/09/24 04:36:00;;;;;;;3.93;2.10;;;13.30;99.70;;;;;;5029076;28;20721;-73
2022/09/24 04:38:27;;;;;;;1.93;1.83;;;13.30;99.70;;;;;;5026438;28;20560;-73
2022/09/24 04:40:54;;;;;;;1.67;1.57;;;13.30;99.70;;;;;;5028161;28;20212;-73
2022/09/24 04:43:21;;;;;;;1.60;1.50;;;13.30;99.60;;;;;;5028380;28;20199;-73
2022/09/24 04:45:48;;;;;;;3.10;1.90;;;13.30;99.70;;;;;;5031572;28;20207;-73
2022/09/24 04:48:16;;;;;;;2.17;1.97;;;13.30;99.70;;;;;;5031107;28;20771;-73
2022/09/24 04:50:44;;;;;;;2.50;2.30;;;13.30;99.70;;;;;;5038211;28;20197;-73
2022/09/24 04:53:11;;;;;;;2.70;2.50;;;13.30;99.80;;;;;;5023554;28;20208;-73
2022/09/24 04:55:38;;;;;;;2.53;2.30;;;13.30;99.80;;;;;;5037375;28;20270;-73
2022/09/24 04:58:05;;;;;;;2.50;2.30;;;13.30;99.80;;;;;;5031908;28;20675;-73
2022/09/24 05:00:32;;;;;;;2.20;2.00;;;13.30;99.80;;;;;;5034111;28;20324;-73
2022/09/24 05:03:02;;;;;;;3.07;2.77;;;13.30;99.80;;;;;;5030701;28;20276;-73
2022/09/24 05:05:29;;;;;;;3.33;2.70;;;13.30;99.80;;;;;;5033462;28;20196;-73
2022/09/24 05:07:57;;;;;;;3.73;3.30;;;13.30;99.80;;;;;;5029797;28;20241;-73
2022/09/24 05:10:24;;;;;;;2.77;2.43;;;13.30;99.80;;;;;;5033375;28;20196;-73
2022/09/24 05:12:51;;;;;;;2.43;2.23;;;13.30;99.80;;;;;;5029738;28;20705;-73
2022/09/24 05:15:19;;;;;;;4.67;3.10;;;13.20;99.80;;;;;;5031617;28;20993;-73
2022/09/24 05:17:46;;;;;;;4.83;3.10;;;13.20;99.90;;;;;;5032019;28;20200;-73
2022/09/24 05:20:15;;;;;;;4.73;3.00;;;13.20;99.90;;;;;;5031436;28;20204;-73
2022/09/24 05:22:43;;;;;;;3.10;2.80;;;13.20;99.90;;;;;;5029986;28;20195;-73
2022/09/24 05:25:12;;;;;;;3.70;2.40;;;13.20;99.90;;;;;;5031081;28;20222;-73
2022/09/24 05:27:43;;;;;;;2.77;2.37;;;13.20;99.90;;;;;;5029792;28;20683;-73
2022/09/24 05:30:11;;;;;;;3.93;3.03;;;13.20;99.90;;;;;;5032263;28;20191;-73
2022/09/24 05:32:38;;;;;;;5.00;2.90;;;13.20;99.90;;;;;;5031282;28;20610;-74
2022/09/24 05:35:07;;;;;;;3.53;2.83;;;13.20;99.90;;;;;;5038098;28;20193;-73
2022/09/24 05:37:34;;;;;;;5.87;3.80;;;13.10;99.90;;;;;;5032078;28;20196;-73
2022/09/24 05:40:46;;;;;;;3.97;3.03;;;13.20;99.90;;;;;;5041280;28;20298;-73
2022/09/24 05:42:50;;;;;;;3.83;3.27;;;13.10;99.90;;;;;;5028232;28;20277;-73
2022/09/24 05:45:17;;;;;;;3.67;3.33;;;13.10;99.90;;;;;;5031986;28;20240;-73
2022/09/24 05:47:45;;;;;;;3.57;3.17;;;13.10;99.90;;;;;;5030476;28;20303;-73
2022/09/24 05:50:12;;;;;;;5.50;3.70;;;13.10;99.90;;;;;;5030803;28;20278;-73
2022/09/24 05:52:39;;;;;;;5.57;3.60;;;13.10;99.90;;;;;;5027710;28;20285;-73
2022/09/24 05:55:08;;;;;;;4.43;3.50;;;13.10;99.90;;;;;;5030526;28;20201;-73
2022/09/24 05:57:35;;;;;;;3.40;3.10;;;13.10;99.90;;;;;;5038516;28;20282;-74
2022/09/24 06:00:04;;;;;;;3.37;2.70;;;13.10;99.90;;;;;;5032009;28;20274;-73
2022/09/24 06:02:38;;;;;;;2.30;2.10;;;13.10;99.90;;;;;;5030359;28;20207;-74
2022/09/24 06:05:07;;;;;;;4.40;2.60;;;13.20;99.90;;;;;;5032012;28;20191;-74
2022/09/24 06:07:34;;;;;;;2.20;2.00;;;13.20;99.90;;;;;;5032896;28;20361;-74
2022/09/24 06:10:01;;;;;;;2.07;1.87;;;13.20;99.90;;;;;;5031613;28;20719;-74
2022/09/24 06:12:28;;;;;;;2.97;1.83;;;13.20;99.90;;;;;;5030372;28;20246;-73
2022/09/24 06:14:55;;;;;;;2.13;1.93;;;13.30;99.90;;;;;;5031499;28;20601;-73
2022/09/24 06:17:23;;;;;;;4.23;2.63;;;13.30;99.90;;;;;;5029650;28;20200;-74
2022/09/24 06:19:50;;;;;;;5.90;2.73;;;13.30;99.90;;;;;;5029091;28;20204;-74
2022/09/24 06:22:18;;;;;;;3.27;2.43;;;13.30;99.90;;;;;;5032302;28;20196;-74
2022/09/24 06:24:45;;;;;;;6.03;3.10;;;13.30;99.90;;;;;;5034183;28;20540;-73
2022/09/24 06:27:12;;;;;;;5.20;3.57;;;13.30;99.90;;;;;;5029965;28;20231;-73
2022/09/24 06:29:39;;;;;;;7.30;3.43;;;13.20;99.90;;;;;;5030593;28;20215;-73
2022/09/24 06:32:07;;;;;;;7.20;3.40;;;13.20;99.90;;;;;;5042620;28;20203;-74
2022/09/24 06:34:35;;;;;;;5.83;3.30;;;13.20;99.90;;;;;;5042080;28;20612;-74
2022/09/24 06:37:02;;;;;;;5.20;3.57;;;13.20;99.90;;;;;;5029793;28;20197;-73
2022/09/24 06:39:29;;;;;;;4.70;3.07;;;13.20;99.90;;;;;;5030683;28;20210;-74
2022/09/24 06:41:57;;;;;;;3.73;3.20;;;13.20;99.90;;;;;;5030022;28;20321;-73
2022/09/24 06:44:25;;;;;;;3.93;3.33;;;13.20;99.90;;;;;;5036128;28;20203;-73
2022/09/24 06:46:53;;;;;;;7.00;4.13;;;13.20;99.90;;;;;;5029365;28;20317;-74
2022/09/24 06:49:19;;;;;;;4.10;3.20;;;13.20;99.90;;;;;;5029309;28;20227;-74
2022/09/24 06:51:48;;;;;;;3.43;3.13;;;13.30;99.90;;;;;;5030890;28;20290;-73
2022/09/24 06:54:15;;;;;;;5.73;3.70;;;13.30;99.90;;;;;;5029206;28;20229;-73
2022/09/24 06:56:42;;;;;;;3.50;2.97;;;13.30;99.90;;;;;;5026036;28;20287;-74
2022/09/24 06:59:09;;;;;;;4.87;3.57;;;13.30;99.90;;;;;;5029600;28;20199;-74
2022/09/24 07:01:36;;;;;;;7.33;5.10;;;13.30;99.90;;;;;;5030225;28;21119;-74
2022/09/24 07:04:03;;;;;;;6.10;4.07;;;13.30;99.90;;;;;;5028392;28;20285;-74
2022/09/24 07:07:28;;;;;;;3.60;3.20;;;13.40;99.90;;;;;;5037648;28;20295;-73
2022/09/24 07:09:19;;;;;;;6.40;4.60;;;13.40;99.90;;;;;;5026281;28;20217;-73
2022/09/24 07:11:46;;;;;;;7.03;4.53;;;13.40;99.90;;;;;;5029376;28;20228;-73
2022/09/24 07:14:13;;;;;;;9.73;5.80;;;13.50;99.90;;;;;;5026004;28;20219;-75
2022/09/24 07:16:40;;;;;;;9.27;6.07;;;13.50;99.90;;;;;;5029286;28;20192;-74
2022/09/24 07:19:07;;;;;;;7.77;5.43;;;13.50;99.90;;;;;;5033972;28;20198;-74
2022/09/24 07:21:34;;;;;;;14.87;6.83;;;13.50;99.90;;;;;;5028758;28;20202;-74
2022/09/24 07:24:01;;;;;;;15.00;6.67;;;13.50;99.90;;;;;;5028545;28;20659;-74
2022/09/24 07:26:30;;;;;;;28.17;11.20;;;13.60;99.90;;;;;;5029981;28;20241;-74
2022/09/24 07:28:57;;;;;;;23.87;9.10;;;13.60;99.90;;;;;;5028548;28;20636;-74
2022/09/24 07:31:25;;;;;;;14.20;6.53;;;13.60;99.90;;;;;;5030248;28;20200;-74
2022/09/24 07:33:52;;;;;;;8.87;5.10;;;13.70;99.90;;;;;;5029991;28;20215;-74
2022/09/24 07:36:19;;;;;;;5.57;3.90;;;13.80;99.90;;;;;;5032078;28;20249;-74
2022/09/24 07:38:46;;;;;;;6.17;3.97;;;13.90;99.90;;;;;;5034609;28;20189;-74
2022/09/24 07:41:13;;;;;;;4.57;3.63;;;14.00;99.90;;;;;;5039348;28;20224;-74
2022/09/24 07:43:44;;;;;;;5.03;3.90;;;14.00;99.90;;;;;;5028082;28;20208;-74
2022/09/24 07:46:11;;;;;;;5.77;3.90;;;14.10;99.90;;;;;;5028678;28;20279;-74
2022/09/24 07:48:38;;;;;;;4.73;3.90;;;14.10;99.90;;;;;;5029057;28;20235;-74
2022/09/24 07:51:09;;;;;;;5.10;3.87;;;14.20;99.90;;;;;;5028204;28;20741;-74
2022/09/24 07:53:37;;;;;;;7.80;5.17;;;14.20;99.90;;;;;;5025560;28;20202;-74
2022/09/24 07:56:04;;;;;;;6.37;4.23;;;14.20;99.90;;;;;;5030617;28;20198;-74
2022/09/24 07:58:31;;;;;;;4.90;3.93;;;14.30;99.90;;;;;;5027631;28;20728;-73
2022/09/24 08:01:00;;;;;;;4.93;3.57;;;14.30;99.90;;;;;;5027474;28;20194;-74
2022/09/24 08:03:27;;;;;;;7.83;3.70;;;14.30;99.90;;;;;;5026790;28;20212;-73
2022/09/24 08:05:57;;;;;;;8.77;4.40;;;14.40;99.90;;;;;;5028052;28;20240;-73
2022/09/24 08:08:24;;;;;;;7.23;4.50;;;14.40;99.90;;;;;;5027430;28;20687;-74
2022/09/24 08:10:51;;;;;;;5.07;4.00;;;14.50;99.90;;;;;;5032861;28;20239;-74
2022/09/24 08:13:18;;;;;;;11.33;6.90;;;14.60;99.90;;;;;;5026202;28;20253;-75
2022/09/24 08:15:45;;;;;;;8.80;5.17;;;14.80;99.90;;;;;;5032463;28;20726;-74
2022/09/24 08:18:14;;;;;;;7.83;4.67;;;14.90;99.90;;;;;;5026001;28;20191;-74
2022/09/24 08:20:41;;;;;;;6.03;4.07;;;15.00;99.90;;;;;;5030161;28;20221;-74
2022/09/24 08:23:09;;;;;;;4.37;3.93;;;15.00;99.90;;;;;;5026770;28;20216;-74
2022/09/24 08:25:36;;;;;;;7.23;4.93;;;15.00;99.90;;;;;;5036670;28;20200;-74
2022/09/24 08:28:05;;;;;;;5.33;3.60;;;15.00;99.90;;;;;;5034319;28;20273;-74
2022/09/24 08:30:32;;;;;;;6.37;3.77;;;15.00;99.90;;;;;;5033407;28;20197;-74
2022/09/24 08:33:00;;;;;;;6.97;4.30;;;15.00;99.90;;;;;;5032763;28;20227;-74
2022/09/24 08:35:28;;;;;;;7.33;4.93;;;15.00;99.90;;;;;;5037523;28;20281;-74
2022/09/24 08:37:55;;;;;;;5.80;3.90;;;14.90;99.90;;;;;;5028881;28;20205;-73
2022/09/24 08:40:24;;;;;;;7.63;4.60;;;15.00;99.90;;;;;;5031107;28;20285;-74
2022/09/24 08:42:59;;;;;;;7.70;5.33;;;15.10;99.90;;;;;;5032201;28;20277;-74
2022/09/24 08:48:15;;;;;;;4.00;3.57;;;15.20;99.90;;;;;;5046418;28;20281;-74
2022/09/24 08:50:50;;;;;;;5.50;4.13;;;15.20;99.90;;;;;;5031287;28;20191;-74
2022/09/24 08:53:22;;;;;;;6.67;4.90;;;15.30;99.90;;;;;;5028152;28;20585;-74
2022/09/24 08:55:52;;;;;;;7.90;4.90;;;15.30;99.90;;;;;;5036774;28;20209;-73
2022/09/24 08:58:31;;;;;;;8.13;5.13;;;15.30;99.90;;;;;;5029953;28;20565;-74
2022/09/24 09:01:05;;;;;;;8.47;5.23;;;15.30;99.90;;;;;;5032512;28;20524;-73
2022/09/24 09:03:36;;;;;;;8.10;4.50;;;15.40;99.90;;;;;;5029350;28;20194;-73
2022/09/24 09:06:16;;;;;;;8.10;5.50;;;15.40;99.90;;;;;;5036031;28;20206;-74
2022/09/24 09:08:53;;;;;;;8.17;5.50;;;15.50;99.90;;;;;;5031066;28;20209;-73
2022/09/24 09:11:24;;;;;;;7.80;4.77;;;15.50;99.90;;;;;;5032586;28;20205;-74
2022/09/24 09:13:55;;;;;;;8.27;4.80;;;15.60;99.90;;;;;;5030094;28;20190;-73
2022/09/24 09:16:26;;;;;;;5.47;4.10;;;15.70;99.90;;;;;;5032295;28;20186;-74
2022/09/24 09:18:57;;;;;;;6.13;4.40;;;15.70;99.90;;;;;;5031120;28;20241;-73
2022/09/24 09:21:40;;;;;;;8.63;4.90;;;15.80;99.90;;;;;;5032235;28;20692;-73
2022/09/24 09:24:16;;;;;;;8.20;4.67;;;15.90;99.90;;;;;;5030345;28;20225;-74
2022/09/24 09:26:46;;;;;;;7.17;4.07;;;16.00;99.90;;;;;;5034901;28;20193;-74
2022/09/24 09:29:13;;;;;;;7.87;4.60;;;16.00;99.90;;;;;;5032258;28;20697;-73
2022/09/24 09:31:50;;;;;;;8.50;4.40;;;16.10;99.80;;;;;;5031845;28;20558;-73
2022/09/24 09:34:33;;;;;;;5.23;4.03;;;16.20;99.40;;;;;;5023437;28;20257;-73
2022/09/24 09:37:13;;;;;;;4.47;3.23;;;16.30;99.10;;;;;;5022026;28;20219;-74
2022/09/24 09:39:49;;;;;;;3.43;3.13;;;16.50;98.90;;;;;;5026416;28;20662;-74
2022/09/24 09:42:26;;;;;;;5.83;4.13;;;16.70;98.80;;;;;;5034211;28;20195;-74
2022/09/24 09:44:54;;;;;;;6.57;3.77;;;17.00;98.40;;;;;;5029583;28;20221;-74
2022/09/24 09:47:30;;;;;;;3.40;2.77;;;17.60;97.80;;;;;;5031674;28;20248;-74
2022/09/24 09:50:03;;;;;;;5.10;3.40;;;18.50;97.40;;;;;;5033150;28;20226;-74
2022/09/24 09:52:35;;;;;;;2.80;2.60;;;19.80;95.70;;;;;;5031046;28;20229;-74
2022/09/24 09:55:04;;;;;;;3.58;2.80;;;21.40;94.50;;;;;;5026776;28;20559;-74
2022/09/24 09:57:31;;;;;;;3.17;2.25;;;22.80;92.20;;;;;;5026316;28;20259;-73
2022/09/24 10:00:00;;;;;;;5.90;2.30;;;24.00;90.90;;;;;;5035864;28;20221;-74
2022/09/24 10:02:30;;;;;;;4.10;2.53;;;24.90;87.60;;;;;;5035415;28;20654;-73
2022/09/24 10:04:59;;;;;;;7.30;2.97;;;25.30;82.70;;;;;;5030352;28;20191;-74
2022/09/24 10:07:26;;;;;;;9.18;2.90;;;25.30;81.30;;;;;;5027087;28;20207;-73
2022/09/24 10:10:03;;;;;;;3.17;2.25;;;25.30;79.70;;;;;;5034385;28;20221;-74
2022/09/24 10:12:31;;;;;;;2.80;2.50;;;25.60;79.40;;;;;;5030308;28;20654;-73
2022/09/24 10:15:00;;;;;;;6.50;1.92;;;26.20;76.90;;;;;;5028100;28;20203;-74
2022/09/24 10:17:31;;;;;;;3.90;2.30;;;26.90;74.00;;;;;;5031606;28;20190;-74
2022/09/24 10:20:01;;;;;;;2.28;2.05;;;27.60;69.00;;;;;;5026429;28;20210;-74
2022/09/24 10:22:29;;;;;;;1.92;1.83;;;28.50;64.90;;;;;;5031855;28;20301;-74
2022/09/24 10:24:59;;;;;;;3.55;1.67;;;29.20;61.50;;;;;;5025253;28;20202;-73
2022/09/24 10:27:32;;;;;;;3.60;1.92;;;29.60;58.70;;;;;;5034573;28;20193;-74
2022/09/24 10:32:48;;;;;;;2.45;1.25;;;28.60;56.80;;;;;;5025873;28;20201;-73
2022/09/24 10:35:22;;;;;;;1.77;1.67;;;28.60;55.70;;;;;;5029743;28;20194;-73
2022/09/24 10:37:53;;;;;;;3.25;1.88;;;29.00;53.70;;;;;;5027590;28;20225;-74
2022/09/24 10:40:24;;;;;;;1.83;1.67;;;29.30;51.70;;;;;;5028325;28;20198;-74
2022/09/24 10:43:03;;;;;;;2.20;1.90;;;29.10;50.50;;;;;;5030731;28;20286;-73
2022/09/24 10:46:00;;;;;;;3.40;2.45;;;28.70;50.40;;;;;;5036519;28;20225;-73
2022/09/24 10:48:33;;;;;;;3.00;2.30;;;28.40;50.00;;;;;;5027984;28;20276;-74
2022/09/24 10:51:12;;;;;;;2.80;1.98;;;28.60;50.40;;;;;;5028011;28;20241;-74
2022/09/24 10:53:53;;;;;;;4.20;2.60;;;28.70;51.00;;;;;;5034795;28;20234;-74
2022/09/24 10:56:31;;;;;;;4.88;2.10;;;28.70;50.50;;;;;;5034449;28;20221;-73
2022/09/24 10:59:21;;;;;;;2.83;2.00;;;28.10;50.70;;;;;;5028130;28;21009;-74
2022/09/24 11:01:57;;;;;;;2.50;2.30;;;27.50;51.80;;;;;;5031066;28;20716;-74
2022/09/24 11:04:47;;;;;;;2.00;1.90;;;27.40;51.80;;;;;;5033359;28;20685;-74
2022/09/24 11:07:33;;;;;;;4.22;1.90;;;27.70;51.40;;;;;;5029101;28;20187;-74
2022/09/24 11:10:06;;;;;;;2.05;1.85;;;27.50;50.20;;;;;;5027646;28;20242;-74
2022/09/24 11:12:44;;;;;;;2.60;2.40;;;27.10;50.30;;;;;;5038626;28;20236;-74
2022/09/24 11:15:25;;;;;;;2.72;2.05;;;26.90;50.90;;;;;;5032701;28;20254;-74
2022/09/24 11:18:04;;;;;;;2.33;2.22;;;26.50;50.90;;;;;;5030550;28;20646;-74
2022/09/24 11:20:36;;;;;;;1.70;1.60;;;26.70;51.60;;;;;;5028090;28;20198;-74
2022/09/24 11:23:31;;;;;;;2.30;2.10;;;27.00;51.70;;;;;;5026748;28;20260;-74
2022/09/24 11:26:07;;;;;;;1.73;1.63;;;27.00;51.20;;;;;;5027604;28;20290;-74
2022/09/24 11:28:58;;;;;;;2.08;1.30;;;27.50;51.00;;;;;;5029873;28;20194;-74
2022/09/24 11:31:36;;;;;;;1.92;1.70;;;28.10;50.40;;;;;;5027637;28;20198;-74
2022/09/24 11:34:21;;;;;;;1.55;1.45;;;28.90;47.80;;;;;;5027818;28;20202;-74
2022/09/24 11:37:03;;;;;;;1.60;1.50;;;29.20;45.40;;;;;;5035890;28;20198;-74
2022/09/24 11:40:01;;;;;;;1.40;1.30;;;29.40;44.50;;;;;;5107214;27;20491;-62
2022/09/24 11:42:33;;;;;;;1.60;1.50;;;29.60;45.40;;;;;;5096417;28;20286;-62
2022/09/24 11:45:18;;;;;;;1.40;1.40;;;29.00;43.80;;;;;;5090335;28;20204;-62
2022/09/24 11:48:05;;;;;;;1.50;1.40;;;27.70;44.20;;;;;;5075655;28;20775;-63
2022/09/24 11:50:45;;;;;;;1.40;1.30;;;26.40;45.20;;;;;;5097885;28;20447;-63
2022/09/24 11:53:17;;;;;;;1.70;1.48;;;25.40;47.00;;;;;;5100944;28;20260;-63
2022/09/24 11:55:50;;;;;;;1.50;1.40;;;24.80;48.00;;;;;;5098818;28;20196;-63
2022/09/24 11:58:24;;;;;;;1.63;1.48;;;24.30;48.50;;;;;;5100991;28;20689;-63
2022/09/24 12:00:55;;;;;;;4.45;1.20;;;23.80;48.30;;;;;;5096989;28;20199;-63
2022/09/24 12:03:25;;;;;;;1.50;1.40;;;24.00;48.40;;;;;;5095948;28;20200;-63
2022/09/24 12:05:56;;;;;;;1.20;1.20;;;24.00;48.30;;;;;;5080943;28;20218;-63
2022/09/24 12:08:28;;;;;;;2.10;1.10;;;23.70;48.70;;;;;;5093523;28;20597;-62
2022/09/24 12:11:01;;;;;;;1.42;1.33;;;23.50;49.30;;;;;;5098721;28;20212;-61
2022/09/24 12:13:34;;;;;;;1.65;1.50;;;23.20;49.60;;;;;;5099998;28;20286;-62
2022/09/24 12:16:06;;;;;;;1.60;1.50;;;22.80;50.00;;;;;;5097829;28;20223;-63
2022/09/24 12:18:39;;;;;;;1.58;1.42;;;22.60;50.10;;;;;;5095966;28;20601;-63
2022/09/24 12:21:09;;;;;;;1.48;1.10;;;22.30;50.30;;;;;;5097849;28;20569;-63
2022/09/24 12:23:40;;;;;;;1.10;1.10;;;22.00;50.80;;;;;;5092916;28;20943;-63
2022/09/24 12:26:10;;;;;;;3.75;1.30;;;21.90;51.10;;;;;;5093211;28;20208;-63
2022/09/24 12:34:26;;;;;;;1.40;1.30;;;23.30;50.30;;;;;;5099456;28;20189;-63
2022/09/24 12:37:02;;;;;;;1.45;1.35;;;23.30;51.10;;;;;;5093386;28;20208;-63
2022/09/24 12:39:36;;;;;;;1.90;1.55;;;23.00;50.20;;;;;;5100717;28;20320;-63
2022/09/24 12:42:08;;;;;;;1.58;1.48;;;22.50;49.80;;;;;;5098137;28;20196;-63
2022/09/24 12:44:43;;;;;;;1.73;1.40;;;22.00;50.20;;;;;;5091220;28;20231;-63
2022/09/24 12:47:19;;;;;;;1.90;1.70;;;21.70;50.90;;;;;;5100314;28;20197;-63
2022/09/24 12:49:50;;;;;;;3.25;1.58;;;21.30;51.50;;;;;;5089720;28;20191;-63
2022/09/24 12:52:24;;;;;;;1.95;1.75;;;21.00;51.70;;;;;;5082517;28;20271;-63
2022/09/24 12:54:58;;;;;;;1.80;1.70;;;20.80;51.90;;;;;;5086033;28;20698;-64
2022/09/24 12:57:31;;;;;;;1.75;1.65;;;20.50;52.00;;;;;;5083717;28;20810;-63
2022/09/24 12:59:59;;;;;;;1.60;1.50;;;20.40;52.30;;;;;;5067361;28;20648;-63
2022/09/24 13:02:31;;;;;;;1.88;1.30;;;20.20;52.50;;;;;;5080022;28;20207;-63
2022/09/24 13:05:17;;;;;;;1.52;1.40;;;20.10;52.80;;;;;;5079207;28;20221;-64
2022/09/24 13:07:56;;;;;;;1.30;1.20;;;20.10;53.30;;;;;;5079611;28;20184;-63
2022/09/24 13:10:25;;;;;;;1.25;1.23;;;20.00;53.50;;;;;;5082710;28;20275;-63
2022/09/24 13:12:54;;;;;;;2.03;1.42;;;20.00;53.90;;;;;;5082665;28;20755;-63
2022/09/24 13:15:30;;;;;;;1.50;1.30;;;19.90;54.00;;;;;;5084668;28;20196;-62
2022/09/24 13:18:18;;;;;;;1.50;1.30;;;19.80;54.10;;;;;;5078996;28;20189;-62
2022/09/24 13:20:58;;;;;;;4.45;2.30;;;19.80;54.30;;;;;;5076437;28;20213;-62